sensor_id;sensor_type;location;lat;lon;timestamp;P1;durP1;ratioP1;P2;durP2;ratioP2
44696;SDS011;57264;47.480;19.354;2023-04-24T00:00:02;7.27;;;5.77;;
44696;SDS011;57264;47.480;19.354;2023-04-24T00:02:34;8.85;;;5.03;;
44696;SDS011;57264;47.480;19.354;2023-04-24T00:04:59;5.50;;;4.67;;
44696;SDS011;57264;47.480;19.354;2023-04-24T00:07:30;11.50;;;5.57;;
44696;SDS011;57264;47.480;19.354;2023-04-24T00:09:56;11.05;;;5.18;;
44696;SDS011;57264;47.480;19.354;2023-04-24T00:12:22;5.40;;;4.90;;
44696;SDS011;57264;47.480;19.354;2023-04-24T00:14:47;9.80;;;5.53;;
44696;SDS011;57264;47.480;19.354;2023-04-24T00:17:13;10.10;;;4.50;;
44696;SDS011;57264;47.480;19.354;2023-04-24T00:19:38;8.10;;;4.93;;
44696;SDS011;57264;47.480;19.354;2023-04-24T00:22:04;10.37;;;5.27;;
44696;SDS011;57264;47.480;19.354;2023-04-24T00:24:30;10.25;;;5.40;;
44696;SDS011;57264;47.480;19.354;2023-04-24T00:26:56;8.55;;;5.47;;
44696;SDS011;57264;47.480;19.354;2023-04-24T00:29:21;8.07;;;5.20;;
44696;SDS011;57264;47.480;19.354;2023-04-24T00:31:47;10.73;;;5.13;;
44696;SDS011;57264;47.480;19.354;2023-04-24T00:34:13;8.43;;;5.27;;
44696;SDS011;57264;47.480;19.354;2023-04-24T00:36:38;9.27;;;5.40;;
44696;SDS011;57264;47.480;19.354;2023-04-24T00:39:04;6.53;;;5.10;;
44696;SDS011;57264;47.480;19.354;2023-04-24T00:41:30;10.13;;;5.80;;
44696;SDS011;57264;47.480;19.354;2023-04-24T00:43:55;9.83;;;5.33;;
44696;SDS011;57264;47.480;19.354;2023-04-24T00:46:21;8.83;;;4.93;;
44696;SDS011;57264;47.480;19.354;2023-04-24T00:48:47;8.17;;;6.23;;
44696;SDS011;57264;47.480;19.354;2023-04-24T00:51:12;9.13;;;5.40;;
44696;SDS011;57264;47.480;19.354;2023-04-24T00:53:38;9.77;;;5.70;;
44696;SDS011;57264;47.480;19.354;2023-04-24T00:56:03;10.23;;;5.53;;
44696;SDS011;57264;47.480;19.354;2023-04-24T00:58:30;7.90;;;4.90;;
44696;SDS011;57264;47.480;19.354;2023-04-24T01:00:57;9.70;;;5.43;;
44696;SDS011;57264;47.480;19.354;2023-04-24T01:03:26;6.83;;;5.57;;
44696;SDS011;57264;47.480;19.354;2023-04-24T01:05:55;9.70;;;5.38;;
44696;SDS011;57264;47.480;19.354;2023-04-24T01:08:22;9.47;;;5.97;;
44696;SDS011;57264;47.480;19.354;2023-04-24T01:10:50;9.90;;;5.75;;
44696;SDS011;57264;47.480;19.354;2023-04-24T01:13:17;8.23;;;4.78;;
44696;SDS011;57264;47.480;19.354;2023-04-24T01:15:44;8.23;;;5.60;;
44696;SDS011;57264;47.480;19.354;2023-04-24T01:18:10;9.65;;;5.75;;
44696;SDS011;57264;47.480;19.354;2023-04-24T01:20:36;7.90;;;5.50;;
44696;SDS011;57264;47.480;19.354;2023-04-24T01:23:05;12.98;;;6.25;;
44696;SDS011;57264;47.480;19.354;2023-04-24T01:25:31;6.85;;;5.53;;
44696;SDS011;57264;47.480;19.354;2023-04-24T01:27:57;7.80;;;6.07;;
44696;SDS011;57264;47.480;19.354;2023-04-24T01:30:23;7.00;;;5.50;;
44696;SDS011;57264;47.480;19.354;2023-04-24T01:32:49;7.83;;;5.20;;
44696;SDS011;57264;47.480;19.354;2023-04-24T01:35:15;9.43;;;5.95;;
44696;SDS011;57264;47.480;19.354;2023-04-24T01:37:40;10.73;;;5.87;;
44696;SDS011;57264;47.480;19.354;2023-04-24T01:40:06;8.63;;;5.93;;
44696;SDS011;57264;47.480;19.354;2023-04-24T01:42:32;10.50;;;5.95;;
44696;SDS011;57264;47.480;19.354;2023-04-24T01:44:59;11.90;;;5.95;;
44696;SDS011;57264;47.480;19.354;2023-04-24T01:47:27;8.55;;;5.70;;
44696;SDS011;57264;47.480;19.354;2023-04-24T01:49:52;9.33;;;5.53;;
44696;SDS011;57264;47.480;19.354;2023-04-24T01:52:18;10.47;;;5.60;;
44696;SDS011;57264;47.480;19.354;2023-04-24T01:54:44;12.73;;;6.40;;
44696;SDS011;57264;47.480;19.354;2023-04-24T01:57:09;6.60;;;5.80;;
44696;SDS011;57264;47.480;19.354;2023-04-24T01:59:35;9.63;;;6.07;;
44696;SDS011;57264;47.480;19.354;2023-04-24T02:02:01;11.07;;;6.13;;
44696;SDS011;57264;47.480;19.354;2023-04-24T02:04:27;7.10;;;5.95;;
44696;SDS011;57264;47.480;19.354;2023-04-24T02:06:53;7.53;;;6.00;;
44696;SDS011;57264;47.480;19.354;2023-04-24T02:09:19;11.10;;;7.03;;
44696;SDS011;57264;47.480;19.354;2023-04-24T02:11:44;9.73;;;6.37;;
44696;SDS011;57264;47.480;19.354;2023-04-24T02:14:10;7.03;;;5.67;;
44696;SDS011;57264;47.480;19.354;2023-04-24T02:16:35;8.23;;;5.97;;
44696;SDS011;57264;47.480;19.354;2023-04-24T02:19:01;10.30;;;6.37;;
44696;SDS011;57264;47.480;19.354;2023-04-24T02:21:27;8.45;;;6.88;;
44696;SDS011;57264;47.480;19.354;2023-04-24T02:23:53;11.40;;;6.77;;
44696;SDS011;57264;47.480;19.354;2023-04-24T02:26:19;9.17;;;6.17;;
44696;SDS011;57264;47.480;19.354;2023-04-24T02:28:45;9.93;;;6.40;;
44696;SDS011;57264;47.480;19.354;2023-04-24T02:31:10;8.47;;;6.57;;
44696;SDS011;57264;47.480;19.354;2023-04-24T02:33:36;9.63;;;6.13;;
44696;SDS011;57264;47.480;19.354;2023-04-24T02:36:02;15.57;;;7.70;;
44696;SDS011;57264;47.480;19.354;2023-04-24T02:38:30;11.10;;;7.10;;
44696;SDS011;57264;47.480;19.354;2023-04-24T02:40:56;8.52;;;6.35;;
44696;SDS011;57264;47.480;19.354;2023-04-24T02:43:21;11.17;;;7.07;;
44696;SDS011;57264;47.480;19.354;2023-04-24T02:45:47;12.70;;;7.57;;
44696;SDS011;57264;47.480;19.354;2023-04-24T02:48:12;12.87;;;8.57;;
44696;SDS011;57264;47.480;19.354;2023-04-24T02:50:38;14.37;;;8.33;;
44696;SDS011;57264;47.480;19.354;2023-04-24T02:53:04;11.00;;;8.03;;
44696;SDS011;57264;47.480;19.354;2023-04-24T02:55:29;12.27;;;8.40;;
44696;SDS011;57264;47.480;19.354;2023-04-24T02:57:55;11.37;;;8.33;;
44696;SDS011;57264;47.480;19.354;2023-04-24T03:00:21;10.07;;;8.20;;
44696;SDS011;57264;47.480;19.354;2023-04-24T03:02:47;8.70;;;7.50;;
44696;SDS011;57264;47.480;19.354;2023-04-24T03:05:14;11.77;;;9.82;;
44696;SDS011;57264;47.480;19.354;2023-04-24T03:07:40;12.07;;;8.68;;
44696;SDS011;57264;47.480;19.354;2023-04-24T03:10:06;11.20;;;8.73;;
44696;SDS011;57264;47.480;19.354;2023-04-24T03:12:33;11.95;;;7.97;;
44696;SDS011;57264;47.480;19.354;2023-04-24T03:14:58;9.90;;;7.87;;
44696;SDS011;57264;47.480;19.354;2023-04-24T03:17:24;9.20;;;7.60;;
44696;SDS011;57264;47.480;19.354;2023-04-24T03:19:50;10.33;;;8.83;;
44696;SDS011;57264;47.480;19.354;2023-04-24T03:22:15;9.70;;;8.33;;
44696;SDS011;57264;47.480;19.354;2023-04-24T03:24:41;9.10;;;8.10;;
44696;SDS011;57264;47.480;19.354;2023-04-24T03:27:06;12.57;;;8.27;;
44696;SDS011;57264;47.480;19.354;2023-04-24T03:29:32;12.53;;;9.13;;
44696;SDS011;57264;47.480;19.354;2023-04-24T03:31:57;10.63;;;9.00;;
44696;SDS011;57264;47.480;19.354;2023-04-24T03:34:24;10.63;;;8.18;;
44696;SDS011;57264;47.480;19.354;2023-04-24T03:36:50;10.47;;;8.50;;
44696;SDS011;57264;47.480;19.354;2023-04-24T03:39:15;11.80;;;8.70;;
44696;SDS011;57264;47.480;19.354;2023-04-24T03:41:41;9.67;;;7.30;;
44696;SDS011;57264;47.480;19.354;2023-04-24T03:44:07;13.40;;;8.13;;
44696;SDS011;57264;47.480;19.354;2023-04-24T03:46:32;10.00;;;7.73;;
44696;SDS011;57264;47.480;19.354;2023-04-24T03:48:58;9.20;;;6.60;;
44696;SDS011;57264;47.480;19.354;2023-04-24T03:51:23;8.97;;;6.90;;
44696;SDS011;57264;47.480;19.354;2023-04-24T03:53:49;8.87;;;6.77;;
44696;SDS011;57264;47.480;19.354;2023-04-24T03:56:15;10.40;;;7.38;;
44696;SDS011;57264;47.480;19.354;2023-04-24T03:58:41;9.75;;;7.80;;
44696;SDS011;57264;47.480;19.354;2023-04-24T04:01:07;9.45;;;7.90;;
44696;SDS011;57264;47.480;19.354;2023-04-24T04:03:33;9.07;;;7.10;;
44696;SDS011;57264;47.480;19.354;2023-04-24T04:05:58;8.83;;;7.27;;
44696;SDS011;57264;47.480;19.354;2023-04-24T04:08:24;8.43;;;7.60;;
44696;SDS011;57264;47.480;19.354;2023-04-24T04:10:50;13.03;;;8.57;;
44696;SDS011;57264;47.480;19.354;2023-04-24T04:13:16;15.60;;;8.20;;
44696;SDS011;57264;47.480;19.354;2023-04-24T04:15:41;8.60;;;7.10;;
44696;SDS011;57264;47.480;19.354;2023-04-24T04:18:07;12.40;;;8.27;;
44696;SDS011;57264;47.480;19.354;2023-04-24T04:20:33;9.90;;;7.10;;
44696;SDS011;57264;47.480;19.354;2023-04-24T04:22:59;8.83;;;7.43;;
44696;SDS011;57264;47.480;19.354;2023-04-24T04:25:25;12.63;;;7.30;;
44696;SDS011;57264;47.480;19.354;2023-04-24T04:27:50;13.60;;;8.40;;
44696;SDS011;57264;47.480;19.354;2023-04-24T04:30:17;9.88;;;7.32;;
44696;SDS011;57264;47.480;19.354;2023-04-24T04:32:43;9.60;;;7.35;;
44696;SDS011;57264;47.480;19.354;2023-04-24T04:35:09;10.97;;;7.97;;
44696;SDS011;57264;47.480;19.354;2023-04-24T04:37:35;11.80;;;8.07;;
44696;SDS011;57264;47.480;19.354;2023-04-24T04:40:01;14.90;;;8.20;;
44696;SDS011;57264;47.480;19.354;2023-04-24T04:42:31;9.60;;;7.28;;
44696;SDS011;57264;47.480;19.354;2023-04-24T04:44:57;10.95;;;7.53;;
44696;SDS011;57264;47.480;19.354;2023-04-24T04:47:23;10.43;;;7.83;;
44696;SDS011;57264;47.480;19.354;2023-04-24T04:49:49;12.10;;;7.90;;
44696;SDS011;57264;47.480;19.354;2023-04-24T04:52:18;11.80;;;7.80;;
44696;SDS011;57264;47.480;19.354;2023-04-24T04:54:44;9.18;;;6.75;;
44696;SDS011;57264;47.480;19.354;2023-04-24T04:57:10;11.13;;;7.27;;
44696;SDS011;57264;47.480;19.354;2023-04-24T04:59:35;9.03;;;6.83;;
44696;SDS011;57264;47.480;19.354;2023-04-24T05:02:02;10.45;;;7.32;;
44696;SDS011;57264;47.480;19.354;2023-04-24T05:04:29;8.02;;;7.22;;
44696;SDS011;57264;47.480;19.354;2023-04-24T05:06:55;8.77;;;7.72;;
44696;SDS011;57264;47.480;19.354;2023-04-24T05:09:21;10.23;;;7.72;;
44696;SDS011;57264;47.480;19.354;2023-04-24T05:11:47;11.97;;;7.63;;
44696;SDS011;57264;47.480;19.354;2023-04-24T05:14:12;11.60;;;7.80;;
44696;SDS011;57264;47.480;19.354;2023-04-24T05:16:38;9.80;;;8.17;;
44696;SDS011;57264;47.480;19.354;2023-04-24T05:19:05;11.82;;;8.45;;
44696;SDS011;57264;47.480;19.354;2023-04-24T05:21:30;14.93;;;8.03;;
44696;SDS011;57264;47.480;19.354;2023-04-24T05:23:57;9.07;;;8.15;;
44696;SDS011;57264;47.480;19.354;2023-04-24T05:26:23;12.97;;;8.20;;
44696;SDS011;57264;47.480;19.354;2023-04-24T05:28:48;10.50;;;7.87;;
44696;SDS011;57264;47.480;19.354;2023-04-24T05:31:15;12.90;;;8.65;;
44696;SDS011;57264;47.480;19.354;2023-04-24T05:33:40;14.40;;;8.73;;
44696;SDS011;57264;47.480;19.354;2023-04-24T05:36:06;10.07;;;8.37;;
44696;SDS011;57264;47.480;19.354;2023-04-24T05:38:32;9.93;;;8.50;;
44696;SDS011;57264;47.480;19.354;2023-04-24T05:40:57;10.70;;;8.37;;
44696;SDS011;57264;47.480;19.354;2023-04-24T05:43:23;9.83;;;8.03;;
44696;SDS011;57264;47.480;19.354;2023-04-24T05:45:48;10.30;;;7.93;;
44696;SDS011;57264;47.480;19.354;2023-04-24T05:48:14;10.83;;;8.17;;
44696;SDS011;57264;47.480;19.354;2023-04-24T05:50:41;9.93;;;8.25;;
44696;SDS011;57264;47.480;19.354;2023-04-24T05:53:06;9.57;;;7.43;;
44696;SDS011;57264;47.480;19.354;2023-04-24T05:55:32;11.10;;;7.60;;
44696;SDS011;57264;47.480;19.354;2023-04-24T05:57:58;8.03;;;7.23;;
44696;SDS011;57264;47.480;19.354;2023-04-24T06:00:24;8.95;;;7.85;;
44696;SDS011;57264;47.480;19.354;2023-04-24T06:02:50;11.48;;;7.72;;
44696;SDS011;57264;47.480;19.354;2023-04-24T06:05:18;8.90;;;7.50;;
44696;SDS011;57264;47.480;19.354;2023-04-24T06:07:44;9.63;;;8.60;;
44696;SDS011;57264;47.480;19.354;2023-04-24T06:10:09;11.40;;;8.23;;
44696;SDS011;57264;47.480;19.354;2023-04-24T06:12:35;8.40;;;7.60;;
44696;SDS011;57264;47.480;19.354;2023-04-24T06:15:01;9.73;;;7.33;;
44696;SDS011;57264;47.480;19.354;2023-04-24T06:17:27;8.67;;;7.77;;
44696;SDS011;57264;47.480;19.354;2023-04-24T06:19:53;10.20;;;7.43;;
44696;SDS011;57264;47.480;19.354;2023-04-24T06:22:18;9.07;;;7.07;;
44696;SDS011;57264;47.480;19.354;2023-04-24T06:24:44;9.83;;;7.50;;
44696;SDS011;57264;47.480;19.354;2023-04-24T06:27:10;11.37;;;7.97;;
44696;SDS011;57264;47.480;19.354;2023-04-24T06:29:36;10.53;;;6.83;;
44696;SDS011;57264;47.480;19.354;2023-04-24T06:32:01;9.27;;;6.77;;
44696;SDS011;57264;47.480;19.354;2023-04-24T06:34:27;10.53;;;7.40;;
44696;SDS011;57264;47.480;19.354;2023-04-24T06:36:53;9.67;;;7.70;;
44696;SDS011;57264;47.480;19.354;2023-04-24T06:39:20;9.90;;;8.70;;
44696;SDS011;57264;47.480;19.354;2023-04-24T06:41:45;10.20;;;8.37;;
44696;SDS011;57264;47.480;19.354;2023-04-24T06:44:11;10.70;;;8.30;;
44696;SDS011;57264;47.480;19.354;2023-04-24T06:46:36;10.87;;;8.00;;
44696;SDS011;57264;47.480;19.354;2023-04-24T06:49:02;10.70;;;8.03;;
44696;SDS011;57264;47.480;19.354;2023-04-24T06:51:28;11.10;;;8.30;;
44696;SDS011;57264;47.480;19.354;2023-04-24T06:53:53;13.33;;;8.10;;
44696;SDS011;57264;47.480;19.354;2023-04-24T06:56:21;13.70;;;7.90;;
44696;SDS011;57264;47.480;19.354;2023-04-24T06:58:47;9.93;;;8.03;;
44696;SDS011;57264;47.480;19.354;2023-04-24T07:01:13;10.50;;;8.77;;
44696;SDS011;57264;47.480;19.354;2023-04-24T07:03:38;10.80;;;9.07;;
44696;SDS011;57264;47.480;19.354;2023-04-24T07:06:05;16.90;;;9.83;;
44696;SDS011;57264;47.480;19.354;2023-04-24T07:08:31;11.50;;;9.70;;
44696;SDS011;57264;47.480;19.354;2023-04-24T07:10:58;9.77;;;8.77;;
44696;SDS011;57264;47.480;19.354;2023-04-24T07:13:24;12.60;;;9.17;;
44696;SDS011;57264;47.480;19.354;2023-04-24T07:15:49;11.77;;;9.90;;
44696;SDS011;57264;47.480;19.354;2023-04-24T07:18:19;14.43;;;10.90;;
44696;SDS011;57264;47.480;19.354;2023-04-24T07:20:45;12.98;;;10.35;;
44696;SDS011;57264;47.480;19.354;2023-04-24T07:23:11;13.17;;;10.63;;
44696;SDS011;57264;47.480;19.354;2023-04-24T07:25:36;12.47;;;10.63;;
44696;SDS011;57264;47.480;19.354;2023-04-24T07:28:03;11.45;;;10.25;;
44696;SDS011;57264;47.480;19.354;2023-04-24T07:30:30;15.60;;;10.70;;
44696;SDS011;57264;47.480;19.354;2023-04-24T07:32:57;12.07;;;10.73;;
44696;SDS011;57264;47.480;19.354;2023-04-24T07:35:23;11.77;;;10.53;;
44696;SDS011;57264;47.480;19.354;2023-04-24T07:37:51;14.30;;;11.30;;
44696;SDS011;57264;47.480;19.354;2023-04-24T07:40:17;15.00;;;11.33;;
44696;SDS011;57264;47.480;19.354;2023-04-24T07:42:43;12.87;;;11.47;;
44696;SDS011;57264;47.480;19.354;2023-04-24T07:45:09;14.23;;;12.17;;
44696;SDS011;57264;47.480;19.354;2023-04-24T07:47:35;13.20;;;11.80;;
44696;SDS011;57264;47.480;19.354;2023-04-24T07:50:02;13.93;;;11.37;;
44696;SDS011;57264;47.480;19.354;2023-04-24T07:52:28;11.43;;;10.27;;
44696;SDS011;57264;47.480;19.354;2023-04-24T07:54:54;14.67;;;12.07;;
44696;SDS011;57264;47.480;19.354;2023-04-24T07:57:24;16.23;;;11.47;;
44696;SDS011;57264;47.480;19.354;2023-04-24T07:59:50;12.60;;;11.40;;
44696;SDS011;57264;47.480;19.354;2023-04-24T08:02:16;15.77;;;11.27;;
44696;SDS011;57264;47.480;19.354;2023-04-24T08:04:42;15.53;;;12.60;;
44696;SDS011;57264;47.480;19.354;2023-04-24T08:07:07;13.83;;;12.10;;
44696;SDS011;57264;47.480;19.354;2023-04-24T08:09:33;13.40;;;11.83;;
44696;SDS011;57264;47.480;19.354;2023-04-24T08:11:58;14.37;;;12.40;;
44696;SDS011;57264;47.480;19.354;2023-04-24T08:14:24;13.17;;;11.00;;
44696;SDS011;57264;47.480;19.354;2023-04-24T08:16:50;13.73;;;10.83;;
44696;SDS011;57264;47.480;19.354;2023-04-24T08:19:17;12.03;;;10.80;;
44696;SDS011;57264;47.480;19.354;2023-04-24T08:21:43;13.37;;;11.17;;
44696;SDS011;57264;47.480;19.354;2023-04-24T08:24:08;14.27;;;10.87;;
44696;SDS011;57264;47.480;19.354;2023-04-24T08:26:34;14.10;;;10.90;;
44696;SDS011;57264;47.480;19.354;2023-04-24T08:28:59;12.53;;;9.37;;
44696;SDS011;57264;47.480;19.354;2023-04-24T08:31:25;13.17;;;9.80;;
44696;SDS011;57264;47.480;19.354;2023-04-24T08:33:51;11.07;;;9.20;;
44696;SDS011;57264;47.480;19.354;2023-04-24T08:36:16;11.03;;;8.67;;
44696;SDS011;57264;47.480;19.354;2023-04-24T08:38:42;9.50;;;8.50;;
44696;SDS011;57264;47.480;19.354;2023-04-24T08:41:08;11.37;;;8.43;;
44696;SDS011;57264;47.480;19.354;2023-04-24T08:43:35;11.37;;;8.50;;
44696;SDS011;57264;47.480;19.354;2023-04-24T08:46:03;9.27;;;8.23;;
44696;SDS011;57264;47.480;19.354;2023-04-24T08:48:29;9.67;;;7.90;;
44696;SDS011;57264;47.480;19.354;2023-04-24T08:50:56;9.63;;;8.00;;
44696;SDS011;57264;47.480;19.354;2023-04-24T08:53:22;9.70;;;8.23;;
44696;SDS011;57264;47.480;19.354;2023-04-24T08:55:50;11.07;;;7.83;;
44696;SDS011;57264;47.480;19.354;2023-04-24T08:58:17;12.23;;;8.37;;
44696;SDS011;57264;47.480;19.354;2023-04-24T09:00:45;10.20;;;8.00;;
44696;SDS011;57264;47.480;19.354;2023-04-24T09:03:16;10.97;;;8.10;;
44696;SDS011;57264;47.480;19.354;2023-04-24T09:05:46;9.97;;;6.87;;
44696;SDS011;57264;47.480;19.354;2023-04-24T09:08:13;8.73;;;7.22;;
44696;SDS011;57264;47.480;19.354;2023-04-24T09:10:39;11.90;;;7.10;;
44696;SDS011;57264;47.480;19.354;2023-04-24T09:13:06;12.60;;;7.93;;
44696;SDS011;57264;47.480;19.354;2023-04-24T09:15:34;8.10;;;7.30;;
44696;SDS011;57264;47.480;19.354;2023-04-24T09:18:00;8.63;;;7.33;;
44696;SDS011;57264;47.480;19.354;2023-04-24T09:20:26;9.47;;;7.27;;
44696;SDS011;57264;47.480;19.354;2023-04-24T09:22:53;7.93;;;7.17;;
44696;SDS011;57264;47.480;19.354;2023-04-24T09:25:24;9.80;;;7.70;;
44696;SDS011;57264;47.480;19.354;2023-04-24T09:27:57;10.67;;;7.63;;
44696;SDS011;57264;47.480;19.354;2023-04-24T09:30:25;9.77;;;7.33;;
44696;SDS011;57264;47.480;19.354;2023-04-24T09:33:09;10.80;;;7.80;;
44696;SDS011;57264;47.480;19.354;2023-04-24T09:35:50;8.43;;;6.27;;
44696;SDS011;57264;47.480;19.354;2023-04-24T09:38:17;9.00;;;6.60;;
44696;SDS011;57264;47.480;19.354;2023-04-24T09:40:42;10.17;;;6.37;;
44696;SDS011;57264;47.480;19.354;2023-04-24T09:43:11;9.63;;;6.87;;
44696;SDS011;57264;47.480;19.354;2023-04-24T09:45:38;10.90;;;6.53;;
44696;SDS011;57264;47.480;19.354;2023-04-24T09:48:04;9.80;;;7.10;;
44696;SDS011;57264;47.480;19.354;2023-04-24T09:50:33;9.40;;;6.77;;
44696;SDS011;57264;47.480;19.354;2023-04-24T09:53:02;9.37;;;6.30;;
44696;SDS011;57264;47.480;19.354;2023-04-24T09:55:29;12.13;;;6.40;;
44696;SDS011;57264;47.480;19.354;2023-04-24T09:57:57;9.90;;;6.47;;
44696;SDS011;57264;47.480;19.354;2023-04-24T10:00:28;8.50;;;6.00;;
44696;SDS011;57264;47.480;19.354;2023-04-24T10:02:56;11.83;;;6.13;;
44696;SDS011;57264;47.480;19.354;2023-04-24T10:05:27;9.77;;;6.30;;
44696;SDS011;57264;47.480;19.354;2023-04-24T10:08:05;10.50;;;5.63;;
44696;SDS011;57264;47.480;19.354;2023-04-24T10:10:33;6.20;;;4.93;;
44696;SDS011;57264;47.480;19.354;2023-04-24T10:13:05;9.13;;;5.10;;
44696;SDS011;57264;47.480;19.354;2023-04-24T10:15:32;8.43;;;5.67;;
44696;SDS011;57264;47.480;19.354;2023-04-24T10:17:58;5.23;;;4.63;;
44696;SDS011;57264;47.480;19.354;2023-04-24T10:20:25;7.07;;;4.10;;
44696;SDS011;57264;47.480;19.354;2023-04-24T10:22:54;8.33;;;3.07;;
44696;SDS011;57264;47.480;19.354;2023-04-24T10:25:22;5.97;;;3.20;;
44696;SDS011;57264;47.480;19.354;2023-04-24T10:27:50;6.67;;;3.93;;
44696;SDS011;57264;47.480;19.354;2023-04-24T10:30:17;5.70;;;3.43;;
44696;SDS011;57264;47.480;19.354;2023-04-24T10:32:44;8.70;;;3.63;;
44696;SDS011;57264;47.480;19.354;2023-04-24T10:35:11;6.57;;;3.13;;
44696;SDS011;57264;47.480;19.354;2023-04-24T10:37:45;8.73;;;3.23;;
44696;SDS011;57264;47.480;19.354;2023-04-24T10:40:18;7.47;;;3.13;;
44696;SDS011;57264;47.480;19.354;2023-04-24T10:42:48;5.60;;;3.55;;
44696;SDS011;57264;47.480;19.354;2023-04-24T10:45:18;6.93;;;3.20;;
44696;SDS011;57264;47.480;19.354;2023-04-24T10:48:05;4.73;;;3.60;;
44696;SDS011;57264;47.480;19.354;2023-04-24T10:51:10;5.23;;;3.70;;
44696;SDS011;57264;47.480;19.354;2023-04-24T10:53:28;5.63;;;3.72;;
44696;SDS011;57264;47.480;19.354;2023-04-24T10:58:23;4.93;;;3.40;;
44696;SDS011;57264;47.480;19.354;2023-04-24T11:00:59;7.57;;;4.50;;
44696;SDS011;57264;47.480;19.354;2023-04-24T11:03:26;9.00;;;4.07;;
44696;SDS011;57264;47.480;19.354;2023-04-24T11:05:55;4.37;;;3.83;;
44696;SDS011;57264;47.480;19.354;2023-04-24T11:08:26;7.27;;;4.40;;
44696;SDS011;57264;47.480;19.354;2023-04-24T11:11:28;9.07;;;3.87;;
44696;SDS011;57264;47.480;19.354;2023-04-24T11:16:28;8.93;;;4.83;;
44696;SDS011;57264;47.480;19.354;2023-04-24T11:19:37;7.93;;;4.13;;
44696;SDS011;57264;47.480;19.354;2023-04-24T11:27:06;5.20;;;4.70;;
44696;SDS011;57264;47.480;19.354;2023-04-24T11:29:39;6.07;;;4.20;;
44696;SDS011;57264;47.480;19.354;2023-04-24T11:34:57;6.73;;;3.57;;
44696;SDS011;57264;47.480;19.354;2023-04-24T11:37:38;6.15;;;3.92;;
44696;SDS011;57264;47.480;19.354;2023-04-24T11:40:06;5.67;;;3.63;;
44696;SDS011;57264;47.480;19.354;2023-04-24T11:42:43;6.53;;;2.70;;
44696;SDS011;57264;47.480;19.354;2023-04-24T11:45:10;8.00;;;3.30;;
44696;SDS011;57264;47.480;19.354;2023-04-24T11:47:37;6.13;;;3.17;;
44696;SDS011;57264;47.480;19.354;2023-04-24T11:50:04;8.27;;;3.60;;
44696;SDS011;57264;47.480;19.354;2023-04-24T11:52:32;5.87;;;3.73;;
44696;SDS011;57264;47.480;19.354;2023-04-24T11:55:01;6.57;;;4.23;;
44696;SDS011;57264;47.480;19.354;2023-04-24T11:57:28;7.67;;;4.57;;
44696;SDS011;57264;47.480;19.354;2023-04-24T12:00:02;6.33;;;4.30;;
44696;SDS011;57264;47.480;19.354;2023-04-24T12:02:30;6.18;;;4.72;;
44696;SDS011;57264;47.480;19.354;2023-04-24T12:04:55;4.73;;;4.20;;
44696;SDS011;57264;47.480;19.354;2023-04-24T12:07:22;8.17;;;3.97;;
44696;SDS011;57264;47.480;19.354;2023-04-24T12:09:58;9.97;;;4.90;;
44696;SDS011;57264;47.480;19.354;2023-04-24T12:12:27;8.43;;;4.40;;
44696;SDS011;57264;47.480;19.354;2023-04-24T12:14:57;6.77;;;4.40;;
44696;SDS011;57264;47.480;19.354;2023-04-24T12:17:27;7.00;;;5.40;;
44696;SDS011;57264;47.480;19.354;2023-04-24T12:22:25;7.93;;;5.83;;
44696;SDS011;57264;47.480;19.354;2023-04-24T12:25:03;6.07;;;5.47;;
44696;SDS011;57264;47.480;19.354;2023-04-24T12:27:33;9.83;;;7.07;;
44696;SDS011;57264;47.480;19.354;2023-04-24T12:30:00;10.10;;;7.37;;
44696;SDS011;57264;47.480;19.354;2023-04-24T12:32:28;48.83;;;11.43;;
44696;SDS011;57264;47.480;19.354;2023-04-24T12:34:53;11.53;;;6.80;;
44696;SDS011;57264;47.480;19.354;2023-04-24T12:37:20;9.13;;;5.00;;
44696;SDS011;57264;47.480;19.354;2023-04-24T12:42:33;16.97;;;9.50;;
44696;SDS011;57264;47.480;19.354;2023-04-24T12:45:01;10.87;;;7.30;;
44696;SDS011;57264;47.480;19.354;2023-04-24T12:47:29;7.30;;;4.67;;
44696;SDS011;57264;47.480;19.354;2023-04-24T12:49:55;7.63;;;5.47;;
44696;SDS011;57264;47.480;19.354;2023-04-24T12:52:24;8.33;;;6.20;;
44696;SDS011;57264;47.480;19.354;2023-04-24T12:54:54;11.37;;;7.90;;
44696;SDS011;57264;47.480;19.354;2023-04-24T12:57:24;11.70;;;7.77;;
44696;SDS011;57264;47.480;19.354;2023-04-24T12:59:51;8.80;;;6.40;;
44696;SDS011;57264;47.480;19.354;2023-04-24T13:02:19;8.43;;;6.07;;
44696;SDS011;57264;47.480;19.354;2023-04-24T13:04:46;9.53;;;5.07;;
44696;SDS011;57264;47.480;19.354;2023-04-24T13:07:12;13.70;;;5.37;;
44696;SDS011;57264;47.480;19.354;2023-04-24T13:09:39;4.90;;;4.50;;
44696;SDS011;57264;47.480;19.354;2023-04-24T13:12:09;8.00;;;4.80;;
44696;SDS011;57264;47.480;19.354;2023-04-24T13:14:35;12.70;;;4.60;;
44696;SDS011;57264;47.480;19.354;2023-04-24T13:17:01;5.30;;;4.80;;
44696;SDS011;57264;47.480;19.354;2023-04-24T13:19:28;5.70;;;4.33;;
44696;SDS011;57264;47.480;19.354;2023-04-24T13:21:54;5.67;;;4.30;;
44696;SDS011;57264;47.480;19.354;2023-04-24T13:24:22;6.60;;;4.03;;
44696;SDS011;57264;47.480;19.354;2023-04-24T13:26:52;5.03;;;4.03;;
44696;SDS011;57264;47.480;19.354;2023-04-24T13:29:18;6.20;;;3.60;;
44696;SDS011;57264;47.480;19.354;2023-04-24T13:31:43;7.93;;;4.17;;
44696;SDS011;57264;47.480;19.354;2023-04-24T13:34:09;5.83;;;4.50;;
44696;SDS011;57264;47.480;19.354;2023-04-24T13:36:35;9.00;;;4.23;;
44696;SDS011;57264;47.480;19.354;2023-04-24T13:39:01;4.60;;;3.90;;
44696;SDS011;57264;47.480;19.354;2023-04-24T13:41:28;4.60;;;4.10;;
44696;SDS011;57264;47.480;19.354;2023-04-24T13:43:53;4.07;;;3.30;;
44696;SDS011;57264;47.480;19.354;2023-04-24T13:46:19;5.37;;;3.20;;
44696;SDS011;57264;47.480;19.354;2023-04-24T13:48:45;4.20;;;3.43;;
44696;SDS011;57264;47.480;19.354;2023-04-24T13:51:10;5.77;;;3.40;;
44696;SDS011;57264;47.480;19.354;2023-04-24T13:53:36;4.77;;;3.10;;
44696;SDS011;57264;47.480;19.354;2023-04-24T13:56:04;5.83;;;3.33;;
44696;SDS011;57264;47.480;19.354;2023-04-24T13:58:31;5.23;;;3.50;;
44696;SDS011;57264;47.480;19.354;2023-04-24T14:00:57;6.80;;;3.10;;
44696;SDS011;57264;47.480;19.354;2023-04-24T14:03:23;4.07;;;3.10;;
44696;SDS011;57264;47.480;19.354;2023-04-24T14:05:48;5.53;;;3.10;;
44696;SDS011;57264;47.480;19.354;2023-04-24T14:08:14;5.03;;;3.40;;
44696;SDS011;57264;47.480;19.354;2023-04-24T14:10:40;5.57;;;3.67;;
44696;SDS011;57264;47.480;19.354;2023-04-24T14:13:06;4.30;;;3.23;;
44696;SDS011;57264;47.480;19.354;2023-04-24T14:15:31;5.23;;;3.80;;
44696;SDS011;57264;47.480;19.354;2023-04-24T14:18:00;6.70;;;3.83;;
44696;SDS011;57264;47.480;19.354;2023-04-24T14:20:25;5.43;;;3.60;;
44696;SDS011;57264;47.480;19.354;2023-04-24T14:22:51;5.40;;;3.93;;
44696;SDS011;57264;47.480;19.354;2023-04-24T14:25:16;4.93;;;3.57;;
44696;SDS011;57264;47.480;19.354;2023-04-24T14:27:42;4.13;;;3.57;;
44696;SDS011;57264;47.480;19.354;2023-04-24T14:30:08;7.60;;;4.47;;
44696;SDS011;57264;47.480;19.354;2023-04-24T14:32:34;6.20;;;4.30;;
44696;SDS011;57264;47.480;19.354;2023-04-24T14:35:00;5.80;;;4.10;;
44696;SDS011;57264;47.480;19.354;2023-04-24T14:37:25;5.77;;;4.37;;
44696;SDS011;57264;47.480;19.354;2023-04-24T14:39:51;5.37;;;4.30;;
44696;SDS011;57264;47.480;19.354;2023-04-24T14:42:16;8.70;;;4.00;;
44696;SDS011;57264;47.480;19.354;2023-04-24T14:44:42;6.80;;;3.77;;